createdAt,value
2023-01-30T07:03:37.923Z,90.33
2023-01-30T07:06:13.000Z,90.33
2023-01-30T07:08:47.436Z,91.73
2023-01-30T07:11:21.957Z,89.11
2023-01-30T07:13:56.302Z,89.15
2023-01-30T07:16:31.003Z,88.74
2023-01-30T07:19:06.956Z,87.27
2023-01-30T07:21:41.481Z,86.74
2023-01-30T07:24:16.205Z,86.99
2023-01-30T07:26:50.754Z,87.14
2023-01-30T07:29:24.939Z,100.00
2023-01-30T07:31:59.723Z,100.00
2023-01-30T07:34:35.777Z,96.87
2023-01-30T07:37:10.383Z,92.87
2023-01-30T07:39:44.561Z,88.43
2023-01-30T07:42:19.087Z,87.43
2023-01-30T07:44:53.324Z,86.67
2023-01-30T07:47:27.833Z,87.58
2023-01-30T07:50:03.941Z,86.80
2023-01-30T07:52:38.495Z,83.93
2023-01-30T07:55:12.806Z,83.91
2023-01-30T07:57:47.796Z,84.17
2023-01-30T08:00:22.415Z,83.91
2023-01-30T08:02:56.985Z,83.31
2023-01-30T08:05:32.575Z,83.64
2023-01-30T08:08:07.255Z,82.92
2023-01-30T08:10:41.524Z,100.00
2023-01-30T08:13:16.260Z,100.00
2023-01-30T08:15:51.026Z,100.00
2023-01-30T08:18:25.690Z,88.33
2023-01-30T08:21:02.251Z,82.43
2023-01-30T08:23:37.080Z,79.75
2023-01-30T08:26:11.350Z,80.96
2023-01-30T08:28:45.974Z,100.00
2023-01-30T08:31:20.328Z,100.00
2023-01-30T08:33:54.878Z,81.74
2023-01-30T08:36:30.412Z,78.03
2023-01-30T08:39:05.145Z,77.41
2023-01-30T08:41:43.066Z,78.82
2023-01-30T08:44:17.615Z,79.91
2023-01-30T08:46:51.865Z,79.64
2023-01-30T08:49:26.507Z,79.54
2023-01-30T08:52:02.438Z,80.12
2023-01-30T08:54:36.974Z,81.70
2023-01-30T08:57:11.163Z,82.07
2023-01-30T08:59:46.039Z,80.70
2023-01-30T09:02:20.575Z,81.36
2023-01-30T09:04:55.149Z,81.94
2023-01-30T09:07:30.849Z,81.56
2023-01-30T09:10:06.330Z,81.40
2023-01-30T09:12:40.803Z,80.59
2023-01-30T09:15:15.552Z,79.51
2023-01-30T09:17:50.015Z,79.34
2023-01-30T09:20:25.863Z,80.05
2023-01-30T09:23:03.198Z,79.56
2023-01-30T09:25:37.845Z,78.76
2023-01-30T09:28:12.029Z,79.81
2023-01-30T09:30:46.767Z,80.11
2023-01-30T09:33:21.589Z,79.49
2023-01-30T09:35:57.183Z,79.46
2023-01-30T09:38:32.867Z,88.72
2023-01-30T09:41:28.907Z,100.00
2023-01-30T09:44:33.034Z,83.09
2023-01-30T09:47:12.123Z,79.86
2023-01-30T09:49:58.036Z,80.27
2023-01-30T09:52:47.529Z,80.02
2023-01-30T09:55:26.069Z,79.36
2023-01-30T09:58:01.886Z,80.04
2023-01-30T10:00:39.532Z,79.98
2023-01-30T10:03:17.215Z,80.29
2023-01-30T10:05:55.569Z,80.25
2023-01-30T10:08:51.118Z,100.00
2023-01-30T10:11:43.957Z,100.00
2023-01-30T10:14:46.909Z,80.11
2023-01-30T10:17:43.773Z,75.47
2023-01-30T10:20:33.221Z,76.75
2023-01-30T10:23:33.203Z,78.50
2023-01-30T10:26:13.104Z,78.22
2023-01-30T10:29:06.817Z,79.19
2023-01-30T10:31:47.150Z,79.40
2023-01-30T10:34:26.595Z,79.73
2023-01-30T10:37:09.914Z,79.42
2023-01-30T10:39:55.953Z,78.61
2023-01-30T10:42:38.988Z,78.28
2023-01-30T10:45:22.427Z,78.32
2023-01-30T10:48:08.691Z,77.62
2023-01-30T10:50:52.200Z,77.92
2023-01-30T10:53:36.435Z,77.15
2023-01-30T10:56:18.544Z,76.98
2023-01-30T10:58:58.696Z,77.04
2023-01-30T11:01:40.162Z,92.65
2023-01-30T11:04:25.383Z,100.00
2023-01-30T11:07:02.381Z,75.95
2023-01-30T11:09:41.858Z,73.71
2023-01-30T11:12:16.658Z,73.73
2023-01-30T11:14:53.223Z,75.37
2023-01-30T11:17:35.311Z,76.21
2023-01-30T11:20:15.812Z,77.67
2023-01-30T11:22:55.157Z,77.33
2023-01-30T11:25:29.960Z,77.62
2023-01-30T11:28:09.426Z,77.72
2023-01-30T11:30:51.815Z,78.62
2023-01-30T11:33:34.564Z,77.92
2023-01-30T11:36:26.694Z,78.04
2023-01-30T11:39:03.924Z,78.16
2023-01-30T11:41:38.449Z,77.08
2023-01-30T11:44:13.056Z,77.71
2023-01-30T11:46:47.859Z,78.14
2023-01-30T11:49:47.881Z,77.49
2023-01-30T11:52:20.416Z,76.64
2023-01-30T11:55:01.114Z,75.56
2023-01-30T11:57:43.054Z,75.55
2023-01-30T12:00:21.042Z,74.94
2023-01-30T12:02:58.496Z,74.08
2023-01-30T12:05:35.866Z,74.70
2023-01-30T12:08:40.719Z,74.69
2023-01-30T12:11:28.710Z,74.46
2023-01-30T12:14:16.184Z,73.94
2023-01-30T12:16:57.446Z,73.65
2023-01-30T12:19:53.942Z,73.47
2023-01-30T12:22:35.004Z,80.19
2023-01-30T12:25:15.251Z,81.89
2023-01-30T12:33:15.777Z,74.61
2023-01-30T12:36:04.865Z,74.27
2023-01-30T12:38:57.247Z,75.21
2023-01-30T12:41:55.043Z,74.65
2023-01-30T12:44:44.091Z,74.75
2023-01-30T12:47:39.741Z,74.32
2023-01-30T12:50:25.905Z,74.97
2023-01-30T12:53:28.567Z,75.09
2023-01-30T12:56:46.371Z,75.81
2023-01-30T12:59:30.769Z,75.56
2023-01-30T13:02:39.098Z,75.72
2023-01-30T13:05:25.695Z,75.20
2023-01-30T13:08:22.087Z,75.57
2023-01-30T13:11:05.274Z,75.46
2023-01-30T13:13:45.164Z,75.49
2023-01-30T13:16:29.550Z,75.72
2023-01-30T13:19:11.192Z,75.61
2023-01-30T13:21:51.349Z,76.60
2023-01-30T13:24:34.184Z,75.69
2023-01-30T13:27:16.251Z,75.30
2023-01-30T13:29:51.583Z,74.99
2023-01-30T13:32:37.871Z,75.43
2023-01-30T13:35:26.437Z,75.56
2023-01-30T13:38:03.980Z,75.75
2023-01-30T13:40:42.929Z,75.55
2023-01-30T13:43:24.418Z,75.05
2023-01-30T13:46:01.992Z,74.50
2023-01-30T13:48:48.108Z,74.19
2023-01-30T13:51:38.763Z,75.45
2023-01-30T13:54:27.506Z,74.75
2023-01-30T13:57:13.328Z,75.06
2023-01-30T14:00:15.601Z,74.91
2023-01-30T14:03:29.116Z,73.60
2023-01-30T14:06:28.052Z,73.68
2023-01-30T14:09:06.946Z,72.93
2023-01-30T14:11:48.901Z,74.04
2023-01-30T14:14:30.505Z,74.15
2023-01-30T14:17:13.975Z,73.66
2023-01-30T14:20:00.987Z,75.33
2023-01-30T14:22:43.416Z,74.80
2023-01-30T14:25:47.247Z,75.15
2023-01-30T14:28:52.101Z,74.88
2023-01-30T14:31:51.660Z,76.12
2023-01-30T14:34:42.357Z,75.32
2023-01-30T14:37:47.505Z,75.69
2023-01-30T14:41:17.377Z,76.79
2023-01-30T14:43:53.950Z,77.15
2023-01-30T14:46:58.520Z,77.40
2023-01-30T14:49:34.495Z,77.23
2023-01-30T14:52:31.716Z,76.84
2023-01-30T14:55:18.054Z,76.54
2023-01-30T14:57:57.373Z,76.52
2023-01-30T15:03:21.668Z,74.86
2023-01-30T15:06:01.154Z,74.86
2023-01-30T15:08:36.238Z,75.90
2023-01-30T15:11:19.640Z,76.36
2023-01-30T15:14:07.771Z,75.57
2023-01-30T15:16:59.982Z,76.95
2023-01-30T15:20:01.976Z,77.44
2023-01-30T15:22:48.029Z,77.04
2023-01-30T15:25:34.258Z,77.67
2023-01-30T15:28:21.821Z,78.28
2023-01-30T15:31:05.577Z,77.34
2023-01-30T15:33:47.726Z,76.85
2023-01-30T15:36:27.540Z,76.88
2023-01-30T15:39:04.441Z,77.51
2023-01-30T15:41:42.916Z,78.68
2023-01-30T15:44:55.052Z,78.97
2023-01-30T15:47:49.735Z,79.38
2023-01-30T15:50:24.972Z,100.00
2023-01-30T15:53:00.616Z,100.00
2023-01-30T15:55:38.456Z,94.82
2023-01-30T15:58:16.961Z,94.68
2023-01-30T16:00:54.968Z,88.67
2023-01-30T16:03:34.387Z,82.85
2023-01-30T16:06:22.320Z,85.39
2023-01-30T16:09:01.643Z,81.91
2023-01-30T16:11:38.433Z,80.43
2023-01-30T16:14:16.231Z,79.94
2023-01-30T16:16:55.294Z,78.91
2023-01-30T16:19:32.956Z,78.79
2023-01-30T16:22:16.009Z,79.97
2023-01-30T16:24:54.567Z,79.55
2023-01-30T16:27:32.003Z,79.91
2023-01-30T16:30:09.342Z,79.76
2023-01-30T16:32:44.065Z,78.77
2023-01-30T16:35:30.916Z,79.04
2023-01-30T16:38:25.217Z,79.51
2023-01-30T16:41:01.242Z,79.09
2023-01-30T16:43:35.665Z,78.60
2023-01-30T16:46:44.280Z,78.89
2023-01-30T16:49:23.862Z,79.41
2023-01-30T16:52:04.403Z,79.16
2023-01-30T16:54:42.276Z,78.67
2023-01-30T16:57:36.390Z,78.66
2023-01-30T17:00:23.615Z,79.31
2023-01-30T17:03:00.182Z,78.83
2023-01-30T17:05:40.566Z,78.87
2023-01-30T17:08:47.067Z,78.57
2023-01-30T17:11:32.743Z,78.95
2023-01-30T17:14:21.395Z,78.88
2023-01-30T17:17:03.837Z,78.88
2023-01-30T17:19:38.848Z,78.69
2023-01-30T17:22:24.475Z,79.03
2023-01-30T17:25:04.160Z,79.44
2023-01-30T17:27:38.813Z,79.54
2023-01-30T17:30:17.957Z,78.91
2023-01-30T17:32:52.522Z,78.83
2023-01-30T17:35:27.420Z,79.24
2023-01-30T17:38:05.775Z,79.12
2023-01-30T17:40:41.134Z,79.23
2023-01-30T17:43:15.827Z,78.95
2023-01-30T17:45:52.454Z,84.04
2023-01-30T17:48:26.908Z,80.54
2023-01-30T17:51:01.980Z,80.78
2023-01-30T17:53:36.355Z,81.47
2023-01-30T17:56:19.315Z,80.97
2023-01-30T17:58:53.774Z,79.74
2023-01-30T18:01:29.742Z,80.25
2023-01-30T18:04:04.466Z,80.69
2023-01-30T18:06:39.882Z,80.88
2023-01-30T18:09:17.250Z,81.05
2023-01-30T18:11:52.224Z,79.74
2023-01-30T18:14:27.112Z,79.05
2023-01-30T18:17:03.844Z,100.00
2023-01-30T18:19:38.359Z,100.00
2023-01-30T18:22:12.901Z,100.00
2023-01-30T18:24:47.682Z,83.89
2023-01-30T18:27:22.069Z,77.58
2023-01-30T18:29:57.062Z,75.90
2023-01-30T18:32:35.349Z,76.45
2023-01-30T18:35:11.435Z,76.43
2023-01-30T18:37:45.841Z,77.63
2023-01-30T18:40:22.104Z,76.93
2023-01-30T18:42:56.809Z,77.42
2023-01-30T18:45:31.628Z,78.07
2023-01-30T18:48:07.981Z,79.02
2023-01-30T18:50:42.734Z,79.14
2023-01-30T18:53:17.109Z,78.87
2023-01-30T18:55:51.916Z,78.78
2023-01-30T18:58:27.417Z,79.21
2023-01-30T19:01:09.243Z,79.30
2023-01-30T19:03:45.775Z,79.50
2023-01-30T19:06:20.649Z,79.30
2023-01-30T19:08:57.981Z,78.59
2023-01-30T19:11:50.745Z,77.73
2023-01-30T19:14:25.257Z,76.97
2023-01-30T19:17:00.365Z,76.21
2023-01-30T19:19:37.202Z,75.53
2023-01-30T19:22:12.009Z,74.52
2023-01-30T19:24:46.491Z,74.39
2023-01-30T19:27:21.165Z,80.13
2023-01-30T19:29:55.612Z,74.29
2023-01-30T19:32:30.412Z,71.38
2023-01-30T19:35:07.431Z,70.39
2023-01-30T19:37:42.291Z,69.25
2023-01-30T19:40:16.965Z,68.91
2023-01-30T19:42:54.751Z,69.76
2023-01-30T19:45:32.776Z,68.95
2023-01-30T19:48:08.712Z,69.68
2023-01-30T19:50:44.327Z,69.90
2023-01-30T19:53:21.471Z,70.16
2023-01-30T19:55:56.005Z,70.40
2023-01-30T19:58:31.479Z,70.22
2023-01-30T20:01:07.770Z,70.70
2023-01-30T20:03:43.829Z,89.71
2023-01-30T20:06:21.679Z,76.00
2023-01-30T20:08:58.570Z,69.50
2023-01-30T20:11:34.192Z,69.64
2023-01-30T20:14:09.730Z,70.20
2023-01-30T20:16:45.509Z,69.80
2023-01-30T20:19:20.412Z,70.65
2023-01-30T20:21:56.819Z,71.01
2023-01-30T20:24:32.776Z,70.74
2023-01-30T20:27:07.316Z,70.20
2023-01-30T20:29:42.223Z,69.42
2023-01-30T20:32:16.708Z,69.93
2023-01-30T20:34:51.551Z,69.92
2023-01-30T20:37:28.005Z,70.34
2023-01-30T20:40:03.027Z,71.06
2023-01-30T20:42:37.288Z,71.42
2023-01-30T20:45:12.419Z,71.58
2023-01-30T20:47:46.735Z,71.04
2023-01-30T20:50:21.840Z,71.15
2023-01-30T20:52:57.828Z,71.04
2023-01-30T20:55:32.628Z,71.35
2023-01-30T20:58:07.015Z,71.41
2023-01-30T21:00:41.741Z,71.71
2023-01-30T21:03:16.038Z,72.10
2023-01-30T21:05:57.961Z,71.69
2023-01-30T21:08:34.153Z,71.82
2023-01-30T21:11:12.619Z,72.20
2023-01-30T21:13:47.477Z,72.14
2023-01-30T21:16:25.094Z,71.39
2023-01-30T21:19:03.735Z,71.46
2023-01-30T21:21:40.676Z,71.53
2023-01-30T21:24:17.276Z,71.85
2023-01-30T21:26:52.851Z,72.35
2023-01-30T21:29:28.596Z,72.47
2023-01-30T21:32:03.249Z,72.11
2023-01-30T21:34:37.920Z,72.44
2023-01-30T21:37:29.369Z,72.72
2023-01-30T21:40:23.207Z,72.28
2023-01-30T21:43:16.398Z,71.90
2023-01-30T21:45:50.600Z,72.12
2023-01-30T21:48:25.303Z,72.37
2023-01-30T21:50:59.586Z,72.02
2023-01-30T21:53:34.372Z,85.38
2023-01-30T21:56:10.480Z,72.88
2023-01-30T21:58:45.229Z,71.26
2023-01-30T22:01:19.994Z,71.74
2023-01-30T22:03:55.133Z,71.66
2023-01-30T22:06:30.113Z,71.25
2023-01-30T22:09:06.177Z,70.97
2023-01-30T22:11:41.918Z,70.51
2023-01-30T22:14:16.494Z,70.56
2023-01-30T22:16:50.648Z,70.50
2023-01-30T22:19:25.125Z,70.72
2023-01-30T22:21:59.348Z,70.43
2023-01-30T22:24:34.078Z,70.59
2023-01-30T22:27:09.674Z,70.74
2023-01-30T22:29:44.183Z,70.49
2023-01-30T22:32:18.541Z,70.17
2023-01-30T22:34:53.046Z,70.53
2023-01-30T22:37:27.249Z,70.55
2023-01-30T22:40:01.717Z,70.75
2023-01-30T22:42:37.585Z,70.76
2023-01-30T22:45:12.774Z,70.69
2023-01-30T22:47:46.924Z,70.69
2023-01-30T22:50:21.468Z,70.83
2023-01-30T22:52:56.201Z,70.54
2023-01-30T22:55:30.765Z,70.57
2023-01-30T22:58:06.449Z,70.33
2023-01-30T23:03:26.526Z,69.17
2023-01-30T23:06:02.983Z,69.17
2023-01-30T23:08:39.119Z,70.00
2023-01-30T23:11:16.801Z,70.33
2023-01-30T23:13:53.041Z,69.89
2023-01-30T23:16:29.309Z,69.10
2023-01-30T23:19:05.112Z,69.67
2023-01-30T23:21:41.301Z,69.66
2023-01-30T23:24:18.686Z,69.65
2023-01-30T23:26:53.245Z,69.81
2023-01-30T23:29:27.415Z,69.77
2023-01-30T23:32:03.300Z,69.24
2023-01-30T23:34:39.352Z,69.59
2023-01-30T23:37:13.890Z,69.77
2023-01-30T23:39:48.097Z,69.81
2023-01-30T23:42:22.590Z,70.03
2023-01-30T23:44:56.867Z,69.68
2023-01-30T23:47:31.403Z,69.27
2023-01-30T23:50:07.704Z,69.66
2023-01-30T23:52:45.045Z,69.63
2023-01-30T23:55:19.485Z,69.09
2023-01-30T23:57:54.257Z,69.50
